createdAt,value
2018-04-30T00:02:11.763Z,96304.63
2018-04-30T00:04:40.096Z,96300.22
2018-04-30T00:07:08.422Z,96296.37
2018-04-30T00:09:36.770Z,96291.36
2018-04-30T00:12:05.101Z,96289.30
2018-04-30T00:14:33.442Z,96287.41
2018-04-30T00:17:01.770Z,96285.88
2018-04-30T00:19:30.121Z,96289.95
2018-04-30T00:21:59.198Z,96292.91
2018-04-30T00:24:27.506Z,96298.83
2018-04-30T00:26:55.876Z,96307.82
2018-04-30T00:29:24.974Z,96313.16
2018-04-30T00:31:54.066Z,96301.31
2018-04-30T00:34:23.138Z,96317.38
2018-04-30T00:36:51.485Z,96331.64
2018-04-30T00:39:19.802Z,96343.45
2018-04-30T00:41:48.902Z,96351.23
2018-04-30T00:44:17.994Z,96344.31
2018-04-30T00:46:46.313Z,96343.92
2018-04-30T00:49:14.645Z,96349.28
2018-04-30T00:51:42.994Z,96357.03
2018-04-30T00:54:11.299Z,96350.86
2018-04-30T00:56:40.419Z,96353.37
2018-04-30T00:59:08.748Z,96357.09
2018-04-30T01:01:37.099Z,96356.75
2018-04-30T01:04:05.424Z,96368.45
2018-04-30T01:06:33.765Z,96376.81
2018-04-30T01:09:02.153Z,96375.25
2018-04-30T01:11:30.481Z,96374.73
2018-04-30T01:13:59.583Z,96378.87
2018-04-30T01:16:27.909Z,96358.86
2018-04-30T01:18:56.245Z,96411.38
2018-04-30T01:21:24.596Z,96415.63
2018-04-30T01:23:53.669Z,96438.95
2018-04-30T01:26:21.959Z,96420.63
2018-04-30T01:28:50.258Z,96436.47
2018-04-30T01:31:18.580Z,96450.23
2018-04-30T01:33:46.897Z,96464.75
2018-04-30T01:36:15.961Z,96469.21
2018-04-30T01:38:44.336Z,96464.75
2018-04-30T01:41:13.435Z,96473.46
2018-04-30T01:43:41.787Z,96490.55
2018-04-30T01:46:10.127Z,96492.55
2018-04-30T01:48:39.252Z,96491.95
2018-04-30T01:51:07.565Z,96503.09
2018-04-30T01:53:35.865Z,96489.36
2018-04-30T01:56:04.991Z,96509.09
2018-04-30T01:58:33.289Z,96518.53
2018-04-30T02:01:01.656Z,96515.64
2018-04-30T02:03:30.003Z,96514.27
2018-04-30T02:05:58.393Z,96525.61
2018-04-30T02:08:26.738Z,96526.32
2018-04-30T02:10:55.041Z,96532.48
2018-04-30T02:13:24.090Z,96542.17
2018-04-30T02:15:52.453Z,96542.09
2018-04-30T02:18:20.765Z,96535.13
2018-04-30T02:20:49.115Z,96531.69
2018-04-30T02:23:17.396Z,96531.31
2018-04-30T02:25:45.730Z,96530.97
2018-04-30T02:28:14.020Z,96532.46
2018-04-30T02:30:42.351Z,96526.63
2018-04-30T02:33:10.673Z,96525.39
2018-04-30T02:35:38.980Z,96525.23
2018-04-30T02:38:07.285Z,96551.39
2018-04-30T02:40:36.343Z,96549.41
2018-04-30T02:43:04.662Z,96560.87
2018-04-30T02:45:33.758Z,96566.20
2018-04-30T02:48:02.813Z,96562.47
2018-04-30T02:50:31.104Z,96569.53
2018-04-30T02:52:59.388Z,96580.14
2018-04-30T02:55:27.710Z,96590.59
2018-04-30T02:57:56.025Z,96585.08
2018-04-30T03:00:24.328Z,96581.93
2018-04-30T03:02:52.632Z,96591.64
2018-04-30T03:05:20.963Z,96605.52
2018-04-30T03:07:49.279Z,96611.05
2018-04-30T03:10:18.332Z,96623.79
2018-04-30T03:12:46.664Z,96624.20
2018-04-30T03:15:14.980Z,96618.23
2018-04-30T03:17:43.277Z,96627.24
2018-04-30T03:20:11.592Z,96628.30
2018-04-30T03:22:39.923Z,96631.34
2018-04-30T03:25:08.227Z,96625.14
2018-04-30T03:27:37.350Z,96623.45
2018-04-30T03:30:05.649Z,96628.14
2018-04-30T03:32:33.940Z,96633.55
2018-04-30T03:35:02.262Z,96623.75
2018-04-30T03:37:30.556Z,96629.29
2018-04-30T03:39:58.962Z,96620.72
2018-04-30T03:42:27.308Z,96632.27
2018-04-30T03:44:55.621Z,96627.06
2018-04-30T03:47:23.921Z,96636.31
2018-04-30T03:49:52.212Z,96635.36
2018-04-30T03:52:21.266Z,96638.94
2018-04-30T03:54:49.607Z,96639.02
2018-04-30T03:57:17.913Z,96637.91
2018-04-30T03:59:46.248Z,96643.20
2018-04-30T04:02:32.479Z,96643.05
2018-04-30T04:05:18.500Z,96660.70
2018-04-30T04:07:46.804Z,96666.86
2018-04-30T04:10:15.846Z,96678.81
2018-04-30T04:12:44.236Z,96697.70
2018-04-30T04:15:12.439Z,96677.42
2018-04-30T04:17:41.493Z,96665.34
2018-04-30T04:20:09.772Z,96674.58
2018-04-30T04:22:38.107Z,96693.19
2018-04-30T04:25:06.396Z,96717.70
2018-04-30T04:27:34.693Z,96757.31
2018-04-30T04:30:03.019Z,96757.20
2018-04-30T04:32:32.103Z,96762.93
2018-04-30T04:35:00.404Z,96760.84
2018-04-30T04:37:29.535Z,96760.73
2018-04-30T04:39:57.889Z,96768.82
2018-04-30T04:42:26.362Z,96778.48
2018-04-30T04:44:54.723Z,96790.83
2018-04-30T04:47:23.895Z,96779.82
2018-04-30T04:49:52.138Z,96790.14
2018-04-30T04:52:20.448Z,96774.92
2018-04-30T04:54:48.787Z,96761.52
2018-04-30T04:57:17.087Z,96768.89
2018-04-30T04:59:45.448Z,96779.59
2018-04-30T05:02:13.839Z,96778.34
2018-04-30T05:04:42.242Z,96782.91
2018-04-30T05:07:10.599Z,96763.69
2018-04-30T05:09:39.043Z,96780.95
2018-04-30T05:12:07.385Z,96793.93
2018-04-30T05:14:35.798Z,96803.77
2018-04-30T05:17:04.088Z,96818.65
2018-04-30T05:19:32.504Z,96826.86
2018-04-30T05:22:00.834Z,96840.59
2018-04-30T05:24:29.144Z,96826.64
2018-04-30T05:26:57.531Z,96857.45
2018-04-30T05:29:25.982Z,96839.24
2018-04-30T05:31:54.343Z,96849.86
2018-04-30T05:34:22.691Z,96849.67
2018-04-30T05:36:51.050Z,96862.13
2018-04-30T05:39:19.440Z,96871.08
2018-04-30T05:41:48.003Z,96863.94
2018-04-30T05:44:16.477Z,96850.21
2018-04-30T05:46:44.894Z,96869.72
2018-04-30T05:49:13.266Z,96866.98
2018-04-30T05:51:41.593Z,96865.84
2018-04-30T05:54:09.915Z,96880.23
2018-04-30T05:56:38.257Z,96908.89
2018-04-30T05:59:06.662Z,96904.88
2018-04-30T06:01:35.141Z,96894.25
2018-04-30T06:04:03.558Z,96902.23
2018-04-30T06:06:32.711Z,96908.22
2018-04-30T06:09:01.116Z,96906.89
2018-04-30T06:11:29.553Z,96912.20
2018-04-30T06:13:58.023Z,96920.44
2018-04-30T06:16:26.455Z,96909.84
2018-04-30T06:18:54.890Z,96896.99
2018-04-30T06:21:23.335Z,96892.70
2018-04-30T06:23:52.555Z,96898.47
2018-04-30T06:26:21.011Z,96905.66
2018-04-30T06:28:50.227Z,96913.67
2018-04-30T06:31:18.699Z,96959.59
2018-04-30T06:33:47.099Z,96978.11
2018-04-30T06:36:15.490Z,96973.45
2018-04-30T06:38:44.758Z,96946.97
2018-04-30T06:41:13.214Z,96982.03
2018-04-30T06:43:42.476Z,97010.55
2018-04-30T06:46:10.865Z,97023.29
2018-04-30T06:48:39.300Z,97030.11
2018-04-30T06:51:07.712Z,97051.70
2018-04-30T06:53:36.122Z,97046.53
2018-04-30T06:56:04.402Z,97026.27
2018-04-30T06:58:33.467Z,97011.15
2018-04-30T07:01:01.814Z,97006.05
2018-04-30T07:03:30.194Z,96963.80
2018-04-30T07:05:58.656Z,96963.53
2018-04-30T07:08:26.983Z,96940.14
2018-04-30T07:10:55.451Z,96945.81
2018-04-30T07:13:23.857Z,96932.64
2018-04-30T07:15:52.286Z,96939.02
2018-04-30T07:18:20.710Z,96946.23
2018-04-30T07:20:49.108Z,96919.87
2018-04-30T07:23:18.230Z,96919.94
2018-04-30T07:25:46.695Z,96938.73
2018-04-30T07:28:15.094Z,96954.79
2018-04-30T07:30:43.563Z,96952.14
2018-04-30T07:33:12.019Z,96958.92
2018-04-30T07:35:41.126Z,96964.86
2018-04-30T07:38:10.330Z,96975.13
2018-04-30T07:40:39.544Z,97010.92
2018-04-30T07:43:07.947Z,97020.22
2018-04-30T07:45:37.059Z,97029.63
2018-04-30T07:48:05.616Z,97031.67
2018-04-30T07:50:33.987Z,97023.14
2018-04-30T07:53:02.374Z,97029.70
2018-04-30T07:55:30.713Z,97031.20
2018-04-30T07:57:59.877Z,97030.28
2018-04-30T08:00:28.269Z,97026.22
2018-04-30T08:02:56.732Z,97021.09
2018-04-30T08:05:25.177Z,97017.27
2018-04-30T08:07:53.634Z,97030.42
2018-04-30T08:10:22.908Z,97026.34
2018-04-30T08:12:51.305Z,97023.13
2018-04-30T08:15:20.484Z,97026.44
2018-04-30T08:17:49.030Z,97018.65
2018-04-30T08:20:17.499Z,97015.44
2018-04-30T08:22:46.035Z,97007.55
2018-04-30T08:25:14.455Z,97011.59
2018-04-30T08:27:42.954Z,97001.90
2018-04-30T08:30:11.428Z,97015.12
2018-04-30T08:32:39.867Z,97006.84
2018-04-30T08:35:09.092Z,97019.84
2018-04-30T08:37:37.414Z,97009.77
2018-04-30T08:40:05.733Z,97021.37
2018-04-30T08:42:34.771Z,97015.47
2018-04-30T08:45:03.138Z,97007.80
2018-04-30T08:47:31.509Z,97011.36
2018-04-30T08:50:00.009Z,97004.05
2018-04-30T08:52:28.373Z,96994.27
2018-04-30T08:54:56.705Z,96994.75
2018-04-30T08:57:25.933Z,96986.36
2018-04-30T08:59:54.382Z,96990.41
2018-04-30T09:02:23.544Z,96998.02
2018-04-30T09:04:51.887Z,97001.93
2018-04-30T09:07:21.297Z,96992.25
2018-04-30T09:09:49.659Z,96999.15
2018-04-30T09:12:17.997Z,96994.64
2018-04-30T09:14:46.314Z,96992.00
2018-04-30T09:17:15.330Z,96962.92
2018-04-30T09:19:43.692Z,96987.17
2018-04-30T09:22:12.009Z,96969.89
2018-04-30T09:24:40.346Z,97001.47
2018-04-30T09:27:08.695Z,97008.36
2018-04-30T09:29:37.819Z,96986.16
2018-04-30T09:32:06.152Z,96979.97
2018-04-30T09:34:34.526Z,96972.72
2018-04-30T09:37:02.821Z,96994.29
2018-04-30T09:39:31.985Z,97002.64
2018-04-30T09:42:00.370Z,96977.25
2018-04-30T09:44:28.687Z,96989.83
2018-04-30T09:46:57.865Z,96975.78
2018-04-30T09:49:26.219Z,96999.18
2018-04-30T09:51:54.611Z,96992.48
2018-04-30T09:54:22.993Z,96997.42
2018-04-30T09:56:51.290Z,96997.34
2018-04-30T09:59:20.309Z,96989.23
2018-04-30T10:01:48.562Z,97000.50
2018-04-30T10:04:17.582Z,97012.41
2018-04-30T10:06:46.636Z,96976.55
2018-04-30T10:09:15.810Z,97009.69
2018-04-30T10:11:44.067Z,96986.48
2018-04-30T10:14:12.336Z,96985.78
2018-04-30T10:16:40.577Z,96988.03
2018-04-30T10:19:08.837Z,97015.73
2018-04-30T10:21:37.853Z,96989.94
2018-04-30T10:24:06.114Z,96994.61
2018-04-30T10:26:35.130Z,96996.20
2018-04-30T10:29:03.435Z,96983.92
2018-04-30T10:31:32.419Z,96977.42
2018-04-30T10:34:00.669Z,96990.31
2018-04-30T10:36:28.923Z,96989.63
2018-04-30T10:38:57.947Z,96968.76
2018-04-30T10:41:26.198Z,96999.95
2018-04-30T10:43:55.216Z,96989.26
2018-04-30T10:46:23.466Z,96988.48
2018-04-30T10:48:52.490Z,96994.81
2018-04-30T10:51:20.731Z,96987.02
2018-04-30T10:53:49.777Z,96988.97
2018-04-30T10:56:18.022Z,96988.11
2018-04-30T10:58:46.269Z,96990.00
2018-04-30T11:01:15.294Z,96992.75
2018-04-30T11:03:43.549Z,96996.29
2018-04-30T11:06:12.569Z,96987.27
2018-04-30T11:08:40.818Z,96994.90
2018-04-30T11:11:09.836Z,96988.20
2018-04-30T11:13:38.085Z,96990.70
2018-04-30T11:16:07.109Z,96992.89
2018-04-30T11:18:35.349Z,96983.98
2018-04-30T11:21:04.376Z,96994.83
2018-04-30T11:23:32.626Z,96978.87
2018-04-30T11:26:01.638Z,96983.83
2018-04-30T11:28:29.885Z,96966.17
2018-04-30T11:30:58.910Z,96980.57
2018-04-30T11:33:27.164Z,96993.72
2018-04-30T11:35:55.431Z,96985.33
2018-04-30T11:38:24.452Z,96988.63
2018-04-30T11:40:52.730Z,96977.68
2018-04-30T11:43:20.991Z,96973.02
2018-04-30T11:45:49.251Z,96994.80
2018-04-30T11:48:18.282Z,96984.71
2018-04-30T11:50:46.539Z,96996.57
2018-04-30T11:53:14.801Z,96989.18
2018-04-30T11:55:43.825Z,96997.36
2018-04-30T11:58:12.096Z,97006.33
2018-04-30T12:00:40.353Z,96997.73
2018-04-30T12:03:08.617Z,96992.66
2018-04-30T12:05:37.624Z,96986.09
2018-04-30T12:08:05.886Z,96982.89
2018-04-30T12:10:34.902Z,96994.19
2018-04-30T12:13:03.164Z,97003.78
2018-04-30T12:15:31.422Z,96987.34
2018-04-30T12:18:00.444Z,96980.27
2018-04-30T12:20:28.698Z,96970.59
2018-04-30T12:22:57.722Z,97001.97
2018-04-30T12:25:25.985Z,96962.75
2018-04-30T12:27:54.257Z,96983.17
2018-04-30T12:30:22.519Z,97010.70
2018-04-30T12:32:51.542Z,96995.50
2018-04-30T12:35:19.806Z,96997.63
2018-04-30T12:37:48.054Z,97000.66
2018-04-30T12:40:17.088Z,96999.16
2018-04-30T12:42:45.337Z,96986.62
2018-04-30T12:45:14.362Z,97002.41
2018-04-30T12:47:42.614Z,97005.31
2018-04-30T12:50:10.878Z,96984.47
2018-04-30T12:52:39.898Z,96995.10
2018-04-30T12:55:08.157Z,96981.91
2018-04-30T12:57:36.416Z,96999.55
2018-04-30T13:00:05.442Z,96993.95
2018-04-30T13:02:33.740Z,96993.10
2018-04-30T13:05:01.983Z,96992.39
2018-04-30T13:07:30.242Z,96970.81
2018-04-30T13:09:59.270Z,97006.62
2018-04-30T13:12:27.517Z,96969.16
2018-04-30T13:14:55.781Z,96984.16
2018-04-30T13:17:24.802Z,96990.39
2018-04-30T13:19:53.063Z,96981.29
2018-04-30T13:22:22.083Z,96987.81
2018-04-30T13:24:50.339Z,96985.73
2018-04-30T13:27:18.593Z,96975.28
2018-04-30T13:29:53.493Z,96987.77
2018-04-30T13:32:24.981Z,96985.55
2018-04-30T13:34:54.002Z,96988.27
2018-04-30T13:37:22.284Z,97006.95
2018-04-30T13:39:50.520Z,96995.00
2018-04-30T13:42:19.544Z,96994.50
2018-04-30T13:44:47.795Z,97002.31
2018-04-30T13:47:16.843Z,96988.33
2018-04-30T13:49:45.087Z,97003.80
2018-04-30T13:52:13.347Z,97016.39
2018-04-30T13:54:41.687Z,97007.97
2018-04-30T13:57:10.640Z,96995.71
2018-04-30T13:59:38.892Z,97012.91
2018-04-30T14:02:07.944Z,97011.94
2018-04-30T14:04:36.189Z,97003.52
2018-04-30T14:07:04.458Z,96995.59
2018-04-30T14:09:32.767Z,97000.17
2018-04-30T14:12:01.095Z,96990.91
2018-04-30T14:14:29.358Z,96996.14
2018-04-30T14:16:58.403Z,97012.50
2018-04-30T14:19:26.657Z,97002.91
2018-04-30T14:21:54.923Z,96999.75
2018-04-30T14:24:23.218Z,96999.81
2018-04-30T14:26:51.468Z,96998.87
2018-04-30T14:29:19.735Z,97025.97
2018-04-30T14:31:48.766Z,97022.88
2018-04-30T14:34:17.039Z,97006.52
2018-04-30T14:36:45.298Z,96994.17
2018-04-30T14:39:13.557Z,97007.53
2018-04-30T14:41:42.572Z,96985.61
2018-04-30T14:44:10.831Z,97007.47
2018-04-30T14:46:39.079Z,97044.23
2018-04-30T14:49:07.340Z,96992.88
2018-04-30T14:51:35.608Z,97005.43
2018-04-30T14:54:04.631Z,97006.96
2018-04-30T14:56:32.879Z,96990.84
2018-04-30T14:59:01.146Z,97013.78
2018-04-30T15:01:29.457Z,97004.86
2018-04-30T15:03:57.662Z,97005.89
2018-04-30T15:06:25.928Z,97006.55
2018-04-30T15:08:54.187Z,97015.10
2018-04-30T15:11:23.219Z,96987.22
2018-04-30T15:13:51.508Z,96972.80
2018-04-30T15:16:19.761Z,96976.02
2018-04-30T15:18:48.014Z,96983.16
2018-04-30T15:21:17.042Z,96991.38
2018-04-30T15:23:45.295Z,96995.26
2018-04-30T15:26:13.558Z,97004.46
2018-04-30T15:28:42.577Z,96998.63
2018-04-30T15:31:10.837Z,97008.36
2018-04-30T15:33:39.086Z,97007.61
2018-04-30T15:36:07.360Z,97016.27
2018-04-30T15:38:35.608Z,97017.47
2018-04-30T15:41:03.857Z,97024.38
2018-04-30T15:43:32.124Z,97006.27
2018-04-30T15:46:00.376Z,97042.27
2018-04-30T15:48:29.412Z,97031.17
2018-04-30T15:50:57.714Z,97019.36
2018-04-30T15:53:25.973Z,97017.66
2018-04-30T15:55:54.251Z,97032.50
2018-04-30T15:58:22.502Z,97022.45
2018-04-30T16:00:50.767Z,97026.62
2018-04-30T16:03:19.023Z,97028.13
2018-04-30T16:05:48.054Z,97035.36
2018-04-30T16:08:16.320Z,97041.33
2018-04-30T16:10:44.577Z,97037.23
2018-04-30T16:13:13.604Z,97031.61
2018-04-30T16:15:41.851Z,97041.55
2018-04-30T16:18:10.112Z,97034.98
2018-04-30T16:20:39.127Z,97027.45
2018-04-30T16:23:07.394Z,97019.14
2018-04-30T16:25:36.407Z,97025.75
2018-04-30T16:28:04.676Z,97036.95
2018-04-30T16:30:32.930Z,97031.48
2018-04-30T16:33:01.962Z,97042.82
2018-04-30T16:35:30.217Z,97052.80
2018-04-30T16:37:58.472Z,97038.02
2018-04-30T16:40:27.520Z,97036.41
2018-04-30T16:42:55.758Z,97034.43
2018-04-30T16:45:24.039Z,97033.16
2018-04-30T16:47:52.292Z,97050.64
2018-04-30T16:50:21.327Z,97044.11
2018-04-30T16:52:49.579Z,97052.86
2018-04-30T16:55:18.611Z,97051.84
2018-04-30T16:57:46.869Z,97040.57
2018-04-30T17:00:15.131Z,97059.99
2018-04-30T17:02:43.377Z,97050.31
2018-04-30T17:05:12.407Z,97056.32
2018-04-30T17:07:40.663Z,97045.20
2018-04-30T17:10:09.686Z,97072.80
2018-04-30T17:12:37.937Z,97068.84
2018-04-30T17:15:06.209Z,97072.37
2018-04-30T17:17:35.225Z,97082.92
2018-04-30T17:20:03.539Z,97075.55
2018-04-30T17:22:31.845Z,97062.72
2018-04-30T17:25:00.899Z,97070.59
2018-04-30T17:27:29.197Z,97064.67
2018-04-30T17:29:57.513Z,97068.99
2018-04-30T17:32:25.817Z,97068.33
2018-04-30T17:34:54.123Z,97080.20
2018-04-30T17:37:22.415Z,97086.32
2018-04-30T17:39:51.460Z,97081.84
2018-04-30T17:42:19.770Z,97084.86
2018-04-30T17:44:48.042Z,97081.20
2018-04-30T17:47:16.396Z,97072.56
2018-04-30T17:49:44.704Z,97089.91
2018-04-30T17:52:12.996Z,97100.45
2018-04-30T17:54:42.044Z,97096.03
2018-04-30T17:57:10.347Z,97091.02
2018-04-30T17:59:38.657Z,97105.42
2018-04-30T18:02:06.961Z,97109.80
2018-04-30T18:04:35.252Z,97111.74
2018-04-30T18:07:03.558Z,97114.75
2018-04-30T18:09:31.862Z,97123.41
2018-04-30T18:12:00.177Z,97128.84
2018-04-30T18:14:28.474Z,97142.48
2018-04-30T18:16:56.763Z,97134.70
2018-04-30T18:19:25.831Z,97142.44
2018-04-30T18:21:54.156Z,97157.78
2018-04-30T18:24:23.216Z,97158.50
2018-04-30T18:26:51.585Z,97141.25
2018-04-30T18:29:19.833Z,97145.80
2018-04-30T18:31:48.120Z,97151.50
2018-04-30T18:34:16.416Z,97161.48
2018-04-30T18:36:44.723Z,97171.48
2018-04-30T18:39:13.783Z,97172.22
2018-04-30T18:41:42.080Z,97185.94
2018-04-30T18:44:10.393Z,97194.29
2018-04-30T18:46:38.710Z,97207.83
2018-04-30T18:49:07.021Z,97219.36
2018-04-30T18:51:36.100Z,97210.75
2018-04-30T18:54:04.411Z,97222.90
2018-04-30T18:56:32.742Z,97226.13
2018-04-30T18:59:01.043Z,97218.23
2018-04-30T19:01:30.117Z,97222.88
2018-04-30T19:03:58.396Z,97227.63
2018-04-30T19:06:26.700Z,97231.70
2018-04-30T19:08:55.760Z,97237.50
2018-04-30T19:11:24.077Z,97239.70
2018-04-30T19:13:52.378Z,97245.84
2018-04-30T19:16:20.711Z,97243.87
2018-04-30T19:18:49.774Z,97244.00
2018-04-30T19:21:18.076Z,97249.91
2018-04-30T19:23:46.372Z,97245.88
2018-04-30T19:26:15.451Z,97248.39
2018-04-30T19:28:44.544Z,97239.03
2018-04-30T19:31:12.864Z,97250.90
2018-04-30T19:33:41.180Z,97243.73
2018-04-30T19:36:09.488Z,97254.55
2018-04-30T19:38:37.783Z,97253.38
2018-04-30T19:41:06.093Z,97261.37
2018-04-30T19:43:34.401Z,97261.40
2018-04-30T19:46:02.718Z,97270.60
2018-04-30T19:48:30.978Z,97281.26
2018-04-30T19:51:00.043Z,97276.02
2018-04-30T19:53:28.288Z,97282.91
2018-04-30T19:55:56.546Z,97280.99
2018-04-30T19:58:24.807Z,97285.28
2018-04-30T20:00:53.056Z,97278.17
2018-04-30T20:03:22.097Z,97275.75
2018-04-30T20:05:50.349Z,97280.92
2018-04-30T20:08:18.610Z,97287.66
2018-04-30T20:10:47.628Z,97284.70
2018-04-30T20:13:15.925Z,97283.34
2018-04-30T20:15:44.181Z,97299.54
2018-04-30T20:18:12.472Z,97303.69
2018-04-30T20:20:40.769Z,97302.83
2018-04-30T20:23:09.021Z,97309.38
2018-04-30T20:25:37.278Z,97306.06
2018-04-30T20:28:05.562Z,97302.87
2018-04-30T20:30:33.812Z,97304.53
2018-04-30T20:33:02.833Z,97292.21
2018-04-30T20:35:31.097Z,97303.03
2018-04-30T20:37:59.455Z,97312.98
2018-04-30T20:40:28.481Z,97304.52
2018-04-30T20:42:57.514Z,97321.71
2018-04-30T20:45:28.379Z,97317.02
2018-04-30T20:47:59.994Z,97317.55
2018-04-30T20:50:29.266Z,97310.86
2018-04-30T20:52:58.297Z,97309.71
2018-04-30T20:55:26.816Z,97307.63
2018-04-30T20:57:57.626Z,97311.52
2018-04-30T21:00:26.369Z,97313.64
2018-04-30T21:02:56.150Z,97307.06
2018-04-30T21:05:25.244Z,97304.08
2018-04-30T21:07:53.738Z,97303.92
2018-04-30T21:10:22.091Z,97299.55
2018-04-30T21:12:51.196Z,97297.66
2018-04-30T21:15:20.296Z,97299.53
2018-04-30T21:17:49.385Z,97292.91
2018-04-30T21:20:18.478Z,97287.78
2018-04-30T21:22:47.505Z,97284.09
2018-04-30T21:25:15.757Z,97293.02
2018-04-30T21:27:44.017Z,97290.47
2018-04-30T21:30:13.041Z,97284.62
2018-04-30T21:32:41.323Z,97290.34
2018-04-30T21:35:10.320Z,97287.73
2018-04-30T21:37:38.585Z,97282.67
2018-04-30T21:40:06.848Z,97293.59
2018-04-30T21:42:35.857Z,97297.03
2018-04-30T21:45:04.114Z,97283.38
2018-04-30T21:47:33.208Z,97286.50
2018-04-30T21:50:01.401Z,97295.08
2018-04-30T21:52:29.653Z,97306.41
2018-04-30T21:54:58.674Z,97306.94
2018-04-30T21:57:26.925Z,97314.22
2018-04-30T21:59:55.948Z,97308.83
2018-04-30T22:02:24.205Z,97316.92
2018-04-30T22:04:52.457Z,97313.22
2018-04-30T22:07:21.501Z,97316.46
2018-04-30T22:09:49.750Z,97325.58
2018-04-30T22:12:18.002Z,97329.00
2018-04-30T22:14:47.020Z,97336.70
2018-04-30T22:17:15.311Z,97340.13
2018-04-30T22:19:43.558Z,97332.94
2018-04-30T22:22:11.823Z,97336.77
2018-04-30T22:24:40.840Z,97330.36
2018-04-30T22:27:09.096Z,97320.05
2018-04-30T22:29:38.127Z,97321.33
2018-04-30T22:32:06.378Z,97323.41
2018-04-30T22:34:34.642Z,97327.59
2018-04-30T22:37:03.657Z,97314.90
2018-04-30T22:39:31.917Z,97317.73
2018-04-30T22:42:00.932Z,97316.20
2018-04-30T22:44:29.211Z,97322.05
2018-04-30T22:46:57.461Z,97339.94
2018-04-30T22:49:25.720Z,97321.80
2018-04-30T22:51:54.737Z,97328.97
2018-04-30T22:54:22.999Z,97329.52
2018-04-30T22:56:52.025Z,97337.56
2018-04-30T22:59:20.281Z,97336.42
2018-04-30T23:01:48.541Z,97340.82
2018-04-30T23:04:17.570Z,97343.05
2018-04-30T23:06:45.847Z,97358.73
2018-04-30T23:09:14.092Z,97345.59
2018-04-30T23:11:43.157Z,97352.03
2018-04-30T23:14:11.438Z,97354.55
2018-04-30T23:16:39.722Z,97366.13
2018-04-30T23:19:08.005Z,97366.58
2018-04-30T23:21:37.051Z,97366.72
2018-04-30T23:24:05.319Z,97363.73
2018-04-30T23:26:33.580Z,97363.84
2018-04-30T23:29:01.857Z,97373.66
2018-04-30T23:31:30.128Z,97382.08
2018-04-30T23:33:58.391Z,97381.00
2018-04-30T23:36:27.467Z,97384.28
2018-04-30T23:38:55.715Z,97373.93
2018-04-30T23:41:24.748Z,97376.84
2018-04-30T23:43:53.799Z,97372.17
2018-04-30T23:46:22.133Z,97369.23
2018-04-30T23:48:50.405Z,97376.83
2018-04-30T23:51:19.427Z,97377.67
2018-04-30T23:53:47.694Z,97366.17
2018-04-30T23:56:15.937Z,97367.05
2018-04-30T23:58:44.962Z,97367.54
